sensor_id;sensor_type;location;lat;lon;timestamp;pressure;altitude;pressure_sealevel;temperature;humidity
34586;BME280;20816;50.950;11.108;2023-06-14T00:01:15;98333.97;;;14.65;76.94
34586;BME280;20816;50.950;11.108;2023-06-14T00:03:42;98327.72;;;14.67;76.74
34586;BME280;20816;50.950;11.108;2023-06-14T00:06:09;98323.47;;;14.63;77.44
34586;BME280;20816;50.950;11.108;2023-06-14T00:08:36;98327.81;;;14.64;77.49
34586;BME280;20816;50.950;11.108;2023-06-14T00:11:03;98329.41;;;14.48;78.29
34586;BME280;20816;50.950;11.108;2023-06-14T00:13:30;98319.81;;;14.45;78.22
34586;BME280;20816;50.950;11.108;2023-06-14T00:15:57;98325.41;;;14.38;78.44
34586;BME280;20816;50.950;11.108;2023-06-14T00:18:23;98325.16;;;14.44;78.11
34586;BME280;20816;50.950;11.108;2023-06-14T00:20:51;98330.94;;;14.31;78.66
34586;BME280;20816;50.950;11.108;2023-06-14T00:23:18;98327.75;;;14.23;79.42
34586;BME280;20816;50.950;11.108;2023-06-14T00:25:45;98329.72;;;14.18;79.30
34586;BME280;20816;50.950;11.108;2023-06-14T00:28:12;98338.63;;;14.16;79.49
34586;BME280;20816;50.950;11.108;2023-06-14T00:30:39;98337.34;;;14.04;80.53
34586;BME280;20816;50.950;11.108;2023-06-14T00:33:05;98337.81;;;13.92;80.90
34586;BME280;20816;50.950;11.108;2023-06-14T00:35:32;98336.22;;;13.88;80.92
34586;BME280;20816;50.950;11.108;2023-06-14T00:37:59;98332.78;;;13.86;80.63
34586;BME280;20816;50.950;11.108;2023-06-14T00:40:26;98326.81;;;13.81;81.03
34586;BME280;20816;50.950;11.108;2023-06-14T00:42:53;98320.13;;;13.72;81.38
34586;BME280;20816;50.950;11.108;2023-06-14T00:45:19;98332.88;;;13.61;82.13
34586;BME280;20816;50.950;11.108;2023-06-14T00:47:47;98332.97;;;13.36;82.66
34586;BME280;20816;50.950;11.108;2023-06-14T00:50:14;98336.75;;;13.29;83.46
34586;BME280;20816;50.950;11.108;2023-06-14T00:52:42;98334.38;;;13.21;84.58
34586;BME280;20816;50.950;11.108;2023-06-14T00:55:09;98337.19;;;13.15;84.66
34586;BME280;20816;50.950;11.108;2023-06-14T00:57:36;98328.84;;;13.02;85.09
34586;BME280;20816;50.950;11.108;2023-06-14T01:00:04;98343.50;;;12.86;85.23
34586;BME280;20816;50.950;11.108;2023-06-14T01:02:36;98341.50;;;12.68;85.22
34586;BME280;20816;50.950;11.108;2023-06-14T01:05:05;98343.88;;;12.50;86.77
34586;BME280;20816;50.950;11.108;2023-06-14T01:07:58;98336.75;;;12.52;86.74
34586;BME280;20816;50.950;11.108;2023-06-14T01:13:26;98344.97;;;12.43;87.27
34586;BME280;20816;50.950;11.108;2023-06-14T01:15:55;98346.38;;;12.53;86.92
34586;BME280;20816;50.950;11.108;2023-06-14T01:18:23;98338.66;;;12.49;86.69
34586;BME280;20816;50.950;11.108;2023-06-14T01:20:50;98339.06;;;12.61;86.82
34586;BME280;20816;50.950;11.108;2023-06-14T01:23:21;98342.63;;;12.60;86.73
34586;BME280;20816;50.950;11.108;2023-06-14T01:25:49;98343.88;;;12.50;86.35
34586;BME280;20816;50.950;11.108;2023-06-14T01:28:20;98351.38;;;12.36;87.39
34586;BME280;20816;50.950;11.108;2023-06-14T01:30:53;98359.69;;;12.24;87.97
34586;BME280;20816;50.950;11.108;2023-06-14T01:33:21;98353.69;;;12.19;88.12
34586;BME280;20816;50.950;11.108;2023-06-14T01:35:51;98353.25;;;12.04;87.99
34586;BME280;20816;50.950;11.108;2023-06-14T01:38:21;98347.31;;;11.99;89.06
34586;BME280;20816;50.950;11.108;2023-06-14T01:40:48;98346.38;;;12.00;88.63
34586;BME280;20816;50.950;11.108;2023-06-14T01:43:18;98349.00;;;12.00;88.75
34586;BME280;20816;50.950;11.108;2023-06-14T01:45:46;98345.47;;;12.01;89.19
34586;BME280;20816;50.950;11.108;2023-06-14T01:48:14;98348.00;;;12.04;89.81
34586;BME280;20816;50.950;11.108;2023-06-14T01:50:41;98343.22;;;12.17;90.34
34586;BME280;20816;50.950;11.108;2023-06-14T01:53:09;98357.19;;;12.19;89.72
34586;BME280;20816;50.950;11.108;2023-06-14T01:55:36;98348.34;;;12.22;90.00
34586;BME280;20816;50.950;11.108;2023-06-14T01:58:10;98342.16;;;12.23;90.70
34586;BME280;20816;50.950;11.108;2023-06-14T02:00:37;98347.31;;;12.26;89.78
34586;BME280;20816;50.950;11.108;2023-06-14T02:03:04;98347.50;;;12.20;89.69
34586;BME280;20816;50.950;11.108;2023-06-14T02:05:30;98352.78;;;12.20;89.74
34586;BME280;20816;50.950;11.108;2023-06-14T02:07:57;98355.53;;;12.17;90.23
34586;BME280;20816;50.950;11.108;2023-06-14T02:10:24;98355.09;;;12.02;90.40
34586;BME280;20816;50.950;11.108;2023-06-14T02:12:51;98358.75;;;11.98;90.73
34586;BME280;20816;50.950;11.108;2023-06-14T02:15:18;98366.22;;;11.84;90.52
34586;BME280;20816;50.950;11.108;2023-06-14T02:17:46;98366.63;;;11.69;90.60
34586;BME280;20816;50.950;11.108;2023-06-14T02:20:16;98357.34;;;11.57;91.12
34586;BME280;20816;50.950;11.108;2023-06-14T02:22:44;98362.72;;;11.52;91.23
34586;BME280;20816;50.950;11.108;2023-06-14T02:25:11;98369.19;;;11.42;92.58
34586;BME280;20816;50.950;11.108;2023-06-14T02:27:38;98374.34;;;11.45;92.64
34586;BME280;20816;50.950;11.108;2023-06-14T02:30:05;98373.47;;;11.45;92.46
34586;BME280;20816;50.950;11.108;2023-06-14T02:32:32;98375.13;;;11.49;92.33
34586;BME280;20816;50.950;11.108;2023-06-14T02:35:02;98377.97;;;11.41;92.29
34586;BME280;20816;50.950;11.108;2023-06-14T02:37:30;98381.00;;;11.28;92.87
34586;BME280;20816;50.950;11.108;2023-06-14T02:39:56;98378.41;;;11.26;93.12
34586;BME280;20816;50.950;11.108;2023-06-14T02:42:23;98377.72;;;11.19;93.71
34586;BME280;20816;50.950;11.108;2023-06-14T02:44:50;98373.31;;;11.20;93.69
34586;BME280;20816;50.950;11.108;2023-06-14T02:47:18;98376.75;;;11.22;93.91
34586;BME280;20816;50.950;11.108;2023-06-14T02:49:45;98373.91;;;11.30;93.81
34586;BME280;20816;50.950;11.108;2023-06-14T02:52:15;98374.72;;;11.33;93.43
34586;BME280;20816;50.950;11.108;2023-06-14T02:54:42;98373.16;;;11.26;94.39
34586;BME280;20816;50.950;11.108;2023-06-14T02:57:09;98376.72;;;11.23;93.81
34586;BME280;20816;50.950;11.108;2023-06-14T02:59:37;98376.72;;;11.23;93.82
34586;BME280;20816;50.950;11.108;2023-06-14T03:02:04;98374.31;;;11.16;93.99
34586;BME280;20816;50.950;11.108;2023-06-14T03:04:31;98379.59;;;11.14;93.80
34586;BME280;20816;50.950;11.108;2023-06-14T03:07:04;98382.63;;;11.01;94.95
34586;BME280;20816;50.950;11.108;2023-06-14T03:09:36;98382.03;;;10.89;95.75
34586;BME280;20816;50.950;11.108;2023-06-14T03:12:04;98385.56;;;10.88;94.36
34586;BME280;20816;50.950;11.108;2023-06-14T03:14:33;98391.84;;;10.84;94.91
34586;BME280;20816;50.950;11.108;2023-06-14T03:17:02;98387.50;;;10.82;94.74
34586;BME280;20816;50.950;11.108;2023-06-14T03:19:31;98391.03;;;10.81;94.27
34586;BME280;20816;50.950;11.108;2023-06-14T03:21:58;98396.56;;;10.70;94.08
34586;BME280;20816;50.950;11.108;2023-06-14T03:24:25;98388.97;;;10.58;95.42
34586;BME280;20816;50.950;11.108;2023-06-14T03:26:55;98396.84;;;10.59;96.26
34586;BME280;20816;50.950;11.108;2023-06-14T03:29:23;98397.53;;;10.66;96.56
34586;BME280;20816;50.950;11.108;2023-06-14T03:32:00;98398.41;;;10.66;95.67
34586;BME280;20816;50.950;11.108;2023-06-14T03:34:27;98409.72;;;10.70;96.51
34586;BME280;20816;50.950;11.108;2023-06-14T03:36:53;98407.75;;;10.78;95.17
34586;BME280;20816;50.950;11.108;2023-06-14T03:39:20;98409.72;;;10.70;95.04
34586;BME280;20816;50.950;11.108;2023-06-14T03:41:47;98413.50;;;10.60;95.31
34586;BME280;20816;50.950;11.108;2023-06-14T03:44:16;98421.56;;;10.52;96.16
34586;BME280;20816;50.950;11.108;2023-06-14T03:46:44;98422.41;;;10.53;96.34
34586;BME280;20816;50.950;11.108;2023-06-14T03:49:12;98422.31;;;10.56;96.85
34586;BME280;20816;50.950;11.108;2023-06-14T03:51:39;98422.94;;;10.67;97.31
34586;BME280;20816;50.950;11.108;2023-06-14T03:54:06;98427.06;;;10.77;96.29
34586;BME280;20816;50.950;11.108;2023-06-14T03:56:53;98424.19;;;10.86;96.46
34586;BME280;20816;50.950;11.108;2023-06-14T03:59:20;98425.09;;;10.85;96.53
34586;BME280;20816;50.950;11.108;2023-06-14T04:01:47;98425.88;;;10.89;96.92
34586;BME280;20816;50.950;11.108;2023-06-14T04:04:15;98430.88;;;10.98;96.50
34586;BME280;20816;50.950;11.108;2023-06-14T04:06:45;98435.91;;;11.07;97.02
34586;BME280;20816;50.950;11.108;2023-06-14T04:09:15;98434.81;;;11.16;96.30
34586;BME280;20816;50.950;11.108;2023-06-14T04:11:41;98443.44;;;11.21;96.50
34586;BME280;20816;50.950;11.108;2023-06-14T04:14:08;98445.81;;;11.30;96.36
34586;BME280;20816;50.950;11.108;2023-06-14T04:16:35;98447.25;;;11.42;95.62
34586;BME280;20816;50.950;11.108;2023-06-14T04:19:02;98445.66;;;11.36;95.36
34586;BME280;20816;50.950;11.108;2023-06-14T04:21:29;98446.31;;;11.44;96.43
34586;BME280;20816;50.950;11.108;2023-06-14T04:23:55;98449.44;;;11.59;95.57
34586;BME280;20816;50.950;11.108;2023-06-14T04:26:22;98454.25;;;11.74;95.42
34586;BME280;20816;50.950;11.108;2023-06-14T04:28:52;98456.56;;;11.86;95.42
34586;BME280;20816;50.950;11.108;2023-06-14T04:31:19;98456.06;;;12.03;94.73
34586;BME280;20816;50.950;11.108;2023-06-14T04:33:47;98473.44;;;12.09;94.55
34586;BME280;20816;50.950;11.108;2023-06-14T04:36:17;98469.00;;;12.11;94.90
34586;BME280;20816;50.950;11.108;2023-06-14T04:38:44;98467.72;;;12.24;94.54
34586;BME280;20816;50.950;11.108;2023-06-14T04:41:15;98471.59;;;12.40;93.57
34586;BME280;20816;50.950;11.108;2023-06-14T04:43:42;98471.31;;;12.49;93.60
34586;BME280;20816;50.950;11.108;2023-06-14T04:46:09;98476.47;;;12.52;92.54
34586;BME280;20816;50.950;11.108;2023-06-14T04:48:41;98475.19;;;12.66;92.21
34586;BME280;20816;50.950;11.108;2023-06-14T04:51:09;98470.13;;;12.86;91.22
34586;BME280;20816;50.950;11.108;2023-06-14T04:53:36;98470.84;;;12.91;91.64
34586;BME280;20816;50.950;11.108;2023-06-14T04:56:04;98473.28;;;12.97;91.01
34586;BME280;20816;50.950;11.108;2023-06-14T04:58:30;98468.28;;;13.14;90.09
34586;BME280;20816;50.950;11.108;2023-06-14T05:00:59;98471.81;;;13.40;89.61
34586;BME280;20816;50.950;11.108;2023-06-14T05:03:26;98465.56;;;13.42;89.49
34586;BME280;20816;50.950;11.108;2023-06-14T05:05:54;98468.25;;;13.66;89.18
34586;BME280;20816;50.950;11.108;2023-06-14T05:08:21;98465.69;;;13.88;88.18
34586;BME280;20816;50.950;11.108;2023-06-14T05:10:51;98470.38;;;14.26;85.77
34586;BME280;20816;50.950;11.108;2023-06-14T05:13:18;98476.09;;;14.61;85.09
34586;BME280;20816;50.950;11.108;2023-06-14T05:15:45;98476.66;;;14.91;83.80
34586;BME280;20816;50.950;11.108;2023-06-14T05:18:12;98474.97;;;14.89;84.10
34586;BME280;20816;50.950;11.108;2023-06-14T05:20:40;98481.13;;;14.89;83.20
34586;BME280;20816;50.950;11.108;2023-06-14T05:23:08;98474.47;;;15.01;82.53
34586;BME280;20816;50.950;11.108;2023-06-14T05:25:45;98479.66;;;15.24;81.44
34586;BME280;20816;50.950;11.108;2023-06-14T05:28:13;98477.66;;;15.29;81.14
34586;BME280;20816;50.950;11.108;2023-06-14T05:30:40;98478.53;;;15.30;81.71
34586;BME280;20816;50.950;11.108;2023-06-14T05:33:07;98483.72;;;15.33;81.35
34586;BME280;20816;50.950;11.108;2023-06-14T05:35:34;98478.47;;;15.31;81.21
34586;BME280;20816;50.950;11.108;2023-06-14T05:38:01;98478.66;;;15.27;80.51
34586;BME280;20816;50.950;11.108;2023-06-14T05:40:27;98479.38;;;15.30;80.52
34586;BME280;20816;50.950;11.108;2023-06-14T05:42:54;98477.94;;;15.43;80.71
34586;BME280;20816;50.950;11.108;2023-06-14T05:45:21;98477.53;;;15.53;80.35
34586;BME280;20816;50.950;11.108;2023-06-14T05:47:48;98478.94;;;15.41;81.12
34586;BME280;20816;50.950;11.108;2023-06-14T05:50:14;98483.78;;;15.72;80.11
34586;BME280;20816;50.950;11.108;2023-06-14T05:52:41;98481.56;;;16.21;78.03
34586;BME280;20816;50.950;11.108;2023-06-14T05:55:08;98489.53;;;16.21;77.71
34586;BME280;20816;50.950;11.108;2023-06-14T05:57:35;98486.44;;;16.30;77.14
34586;BME280;20816;50.950;11.108;2023-06-14T06:00:02;98494.31;;;16.32;77.08
34586;BME280;20816;50.950;11.108;2023-06-14T06:02:37;98491.28;;;16.20;76.93
34586;BME280;20816;50.950;11.108;2023-06-14T06:05:04;98502.63;;;16.05;78.18
34586;BME280;20816;50.950;11.108;2023-06-14T06:07:32;98493.59;;;16.47;77.67
34586;BME280;20816;50.950;11.108;2023-06-14T06:10:03;98493.44;;;16.69;77.01
34586;BME280;20816;50.950;11.108;2023-06-14T06:12:30;98497.41;;;16.79;75.93
34586;BME280;20816;50.950;11.108;2023-06-14T06:14:56;98490.53;;;16.92;74.91
34586;BME280;20816;50.950;11.108;2023-06-14T06:17:23;98491.34;;;17.12;74.85
34586;BME280;20816;50.950;11.108;2023-06-14T06:19:50;98488.16;;;17.22;73.75
34586;BME280;20816;50.950;11.108;2023-06-14T06:22:16;98485.56;;;17.55;73.70
34586;BME280;20816;50.950;11.108;2023-06-14T06:24:43;98486.22;;;17.43;73.60
34586;BME280;20816;50.950;11.108;2023-06-14T06:27:11;98480.72;;;17.81;72.66
34586;BME280;20816;50.950;11.108;2023-06-14T06:29:39;98488.38;;;17.87;72.80
34586;BME280;20816;50.950;11.108;2023-06-14T06:32:06;98493.78;;;18.34;70.86
34586;BME280;20816;50.950;11.108;2023-06-14T06:34:33;98505.41;;;18.49;69.90
34586;BME280;20816;50.950;11.108;2023-06-14T06:36:59;98504.38;;;18.67;69.79
34586;BME280;20816;50.950;11.108;2023-06-14T06:39:27;98499.72;;;18.55;69.63
34586;BME280;20816;50.950;11.108;2023-06-14T06:41:54;98515.63;;;18.72;70.43
34586;BME280;20816;50.950;11.108;2023-06-14T06:44:21;98510.94;;;19.23;68.95
34586;BME280;20816;50.950;11.108;2023-06-14T06:46:47;98508.00;;;18.82;70.10
34586;BME280;20816;50.950;11.108;2023-06-14T06:49:14;98504.22;;;19.62;68.04
34586;BME280;20816;50.950;11.108;2023-06-14T06:51:42;98508.63;;;19.77;66.58
34586;BME280;20816;50.950;11.108;2023-06-14T06:54:10;98506.84;;;19.48;66.48
34586;BME280;20816;50.950;11.108;2023-06-14T06:56:37;98500.63;;;19.63;67.14
34586;BME280;20816;50.950;11.108;2023-06-14T06:59:04;98503.56;;;19.87;66.72
34586;BME280;20816;50.950;11.108;2023-06-14T07:01:31;98507.84;;;19.45;66.67
34586;BME280;20816;50.950;11.108;2023-06-14T07:04:00;98507.00;;;19.45;67.60
34586;BME280;20816;50.950;11.108;2023-06-14T07:06:27;98510.16;;;19.81;66.43
34586;BME280;20816;50.950;11.108;2023-06-14T07:08:54;98505.19;;;19.75;66.61
34586;BME280;20816;50.950;11.108;2023-06-14T07:11:21;98516.28;;;20.12;65.55
34586;BME280;20816;50.950;11.108;2023-06-14T07:13:48;98513.44;;;20.15;65.00
34586;BME280;20816;50.950;11.108;2023-06-14T07:16:14;98517.81;;;20.59;64.78
34586;BME280;20816;50.950;11.108;2023-06-14T07:18:41;98521.44;;;20.29;64.18
34586;BME280;20816;50.950;11.108;2023-06-14T07:21:08;98525.00;;;20.85;63.31
34586;BME280;20816;50.950;11.108;2023-06-14T07:23:35;98529.34;;;20.59;63.40
34586;BME280;20816;50.950;11.108;2023-06-14T07:26:02;98523.06;;;21.02;62.74
34586;BME280;20816;50.950;11.108;2023-06-14T07:28:29;98524.03;;;21.27;62.33
34586;BME280;20816;50.950;11.108;2023-06-14T07:30:56;98534.75;;;21.13;62.00
34586;BME280;20816;50.950;11.108;2023-06-14T07:33:22;98528.88;;;21.35;61.97
34586;BME280;20816;50.950;11.108;2023-06-14T07:35:49;98530.00;;;21.71;61.65
34586;BME280;20816;50.950;11.108;2023-06-14T07:38:18;98530.22;;;21.80;60.88
34586;BME280;20816;50.950;11.108;2023-06-14T07:40:44;98536.00;;;21.08;62.54
34586;BME280;20816;50.950;11.108;2023-06-14T07:43:11;98523.94;;;21.42;61.46
34586;BME280;20816;50.950;11.108;2023-06-14T07:45:38;98524.28;;;21.37;61.55
34586;BME280;20816;50.950;11.108;2023-06-14T07:48:10;98521.56;;;21.90;61.44
34586;BME280;20816;50.950;11.108;2023-06-14T07:50:37;98518.69;;;21.80;60.04
34586;BME280;20816;50.950;11.108;2023-06-14T07:53:04;98532.69;;;21.71;60.71
34586;BME280;20816;50.950;11.108;2023-06-14T07:55:31;98531.09;;;21.81;60.92
34586;BME280;20816;50.950;11.108;2023-06-14T07:58:11;98528.09;;;21.98;60.14
34586;BME280;20816;50.950;11.108;2023-06-14T08:00:40;98534.41;;;21.72;60.87
34586;BME280;20816;50.950;11.108;2023-06-14T08:03:07;98531.72;;;21.59;61.66
34586;BME280;20816;50.950;11.108;2023-06-14T08:05:34;98534.97;;;22.02;59.78
34586;BME280;20816;50.950;11.108;2023-06-14T08:08:01;98541.59;;;21.84;59.92
34586;BME280;20816;50.950;11.108;2023-06-14T08:10:28;98539.47;;;22.02;60.00
34586;BME280;20816;50.950;11.108;2023-06-14T08:12:55;98537.22;;;21.83;59.60
34586;BME280;20816;50.950;11.108;2023-06-14T08:15:21;98544.34;;;21.70;61.17
34586;BME280;20816;50.950;11.108;2023-06-14T08:17:48;98543.16;;;21.74;60.18
34586;BME280;20816;50.950;11.108;2023-06-14T08:20:15;98545.66;;;21.37;60.39
34586;BME280;20816;50.950;11.108;2023-06-14T08:22:43;98544.09;;;21.47;60.69
34586;BME280;20816;50.950;11.108;2023-06-14T08:25:10;98541.97;;;21.65;59.56
34586;BME280;20816;50.950;11.108;2023-06-14T08:27:39;98536.44;;;22.06;59.22
34586;BME280;20816;50.950;11.108;2023-06-14T08:30:06;98533.84;;;22.81;58.70
34586;BME280;20816;50.950;11.108;2023-06-14T08:32:34;98530.63;;;23.13;57.18
34586;BME280;20816;50.950;11.108;2023-06-14T08:35:01;98534.19;;;23.13;56.77
34586;BME280;20816;50.950;11.108;2023-06-14T08:37:45;98543.75;;;22.04;58.64
34586;BME280;20816;50.950;11.108;2023-06-14T08:40:22;98541.41;;;22.13;57.94
34586;BME280;20816;50.950;11.108;2023-06-14T08:42:52;98535.22;;;22.25;57.95
34586;BME280;20816;50.950;11.108;2023-06-14T08:45:21;98537.34;;;22.20;57.96
34586;BME280;20816;50.950;11.108;2023-06-14T08:47:53;98533.47;;;22.49;58.61
34586;BME280;20816;50.950;11.108;2023-06-14T08:50:25;98538.47;;;22.66;57.63
34586;BME280;20816;50.950;11.108;2023-06-14T08:52:57;98535.16;;;22.63;56.42
34586;BME280;20816;50.950;11.108;2023-06-14T08:55:27;98536.50;;;22.32;56.63
34586;BME280;20816;50.950;11.108;2023-06-14T08:57:56;98532.19;;;22.29;56.90
34586;BME280;20816;50.950;11.108;2023-06-14T09:00:27;98540.31;;;22.53;56.86
34586;BME280;20816;50.950;11.108;2023-06-14T09:02:54;98537.69;;;22.90;56.43
34586;BME280;20816;50.950;11.108;2023-06-14T09:05:26;98536.09;;;23.11;55.21
34586;BME280;20816;50.950;11.108;2023-06-14T09:07:54;98531.72;;;22.74;56.72
34586;BME280;20816;50.950;11.108;2023-06-14T09:10:32;98545.53;;;22.67;57.42
34586;BME280;20816;50.950;11.108;2023-06-14T09:13:04;98542.19;;;22.77;56.46
34586;BME280;20816;50.950;11.108;2023-06-14T09:15:31;98540.06;;;22.69;56.15
34586;BME280;20816;50.950;11.108;2023-06-14T09:18:01;98541.47;;;22.75;56.46
34586;BME280;20816;50.950;11.108;2023-06-14T09:20:29;98547.19;;;22.45;56.59
34586;BME280;20816;50.950;11.108;2023-06-14T09:22:56;98553.72;;;22.15;57.77
34586;BME280;20816;50.950;11.108;2023-06-14T09:25:24;98547.38;;;22.54;57.23
34586;BME280;20816;50.950;11.108;2023-06-14T09:28:06;98552.72;;;21.78;58.25
34586;BME280;20816;50.950;11.108;2023-06-14T09:30:33;98551.91;;;22.41;57.18
34586;BME280;20816;50.950;11.108;2023-06-14T09:33:00;98545.13;;;23.34;56.05
34586;BME280;20816;50.950;11.108;2023-06-14T09:35:27;98555.09;;;23.56;55.15
34586;BME280;20816;50.950;11.108;2023-06-14T09:37:57;98547.41;;;23.28;55.32
34586;BME280;20816;50.950;11.108;2023-06-14T09:40:24;98550.84;;;22.56;56.21
34586;BME280;20816;50.950;11.108;2023-06-14T09:42:51;98558.03;;;22.18;57.03
34586;BME280;20816;50.950;11.108;2023-06-14T09:45:20;98547.88;;;22.72;55.58
34586;BME280;20816;50.950;11.108;2023-06-14T09:47:51;98549.06;;;22.81;54.42
34586;BME280;20816;50.950;11.108;2023-06-14T09:50:33;98544.22;;;23.23;54.12
34586;BME280;20816;50.950;11.108;2023-06-14T09:53:05;98543.09;;;23.38;52.95
34586;BME280;20816;50.950;11.108;2023-06-14T09:55:35;98548.03;;;23.79;53.99
34586;BME280;20816;50.950;11.108;2023-06-14T09:58:04;98537.75;;;24.42;53.21
34586;BME280;20816;50.950;11.108;2023-06-14T10:00:33;98545.75;;;24.08;53.14
34586;BME280;20816;50.950;11.108;2023-06-14T10:03:06;98542.31;;;23.12;54.63
34586;BME280;20816;50.950;11.108;2023-06-14T10:05:36;98546.66;;;22.39;55.57
34586;BME280;20816;50.950;11.108;2023-06-14T10:08:08;98546.13;;;22.34;55.95
34586;BME280;20816;50.950;11.108;2023-06-14T10:10:35;98537.47;;;23.41;53.86
34586;BME280;20816;50.950;11.108;2023-06-14T10:13:05;98542.47;;;23.69;52.38
34586;BME280;20816;50.950;11.108;2023-06-14T10:15:41;98536.97;;;23.95;51.38
34586;BME280;20816;50.950;11.108;2023-06-14T10:18:33;98530.53;;;24.42;50.95
34586;BME280;20816;50.950;11.108;2023-06-14T10:21:21;98539.72;;;24.51;51.09
34586;BME280;20816;50.950;11.108;2023-06-14T10:23:50;98544.69;;;23.64;52.72
34586;BME280;20816;50.950;11.108;2023-06-14T10:26:19;98535.22;;;23.59;51.29
34586;BME280;20816;50.950;11.108;2023-06-14T10:29:01;98543.28;;;23.35;52.15
34586;BME280;20816;50.950;11.108;2023-06-14T10:31:44;98543.47;;;23.68;52.06
34586;BME280;20816;50.950;11.108;2023-06-14T10:34:13;98552.00;;;23.62;52.77
34586;BME280;20816;50.950;11.108;2023-06-14T10:37:00;98553.41;;;23.31;52.18
34586;BME280;20816;50.950;11.108;2023-06-14T10:39:28;98539.84;;;23.21;52.09
34586;BME280;20816;50.950;11.108;2023-06-14T10:41:56;98540.19;;;23.52;51.60
34586;BME280;20816;50.950;11.108;2023-06-14T10:46:52;98532.22;;;24.88;49.68
34586;BME280;20816;50.950;11.108;2023-06-14T10:49:20;98539.34;;;23.75;51.78
34586;BME280;20816;50.950;11.108;2023-06-14T10:52:02;98540.72;;;23.57;52.02
34586;BME280;20816;50.950;11.108;2023-06-14T10:54:29;98532.16;;;24.56;50.80
34586;BME280;20816;50.950;11.108;2023-06-14T10:56:58;98531.56;;;24.52;50.77
34586;BME280;20816;50.950;11.108;2023-06-14T10:59:25;98537.22;;;24.03;51.49
34586;BME280;20816;50.950;11.108;2023-06-14T11:04:59;98531.81;;;22.85;53.16
34586;BME280;20816;50.950;11.108;2023-06-14T11:10:36;98531.59;;;23.95;50.49
34586;BME280;20816;50.950;11.108;2023-06-14T11:13:04;98526.13;;;24.30;49.56
34586;BME280;20816;50.950;11.108;2023-06-14T11:15:35;98522.81;;;24.82;49.86
34586;BME280;20816;50.950;11.108;2023-06-14T11:18:05;98517.44;;;25.05;48.48
34586;BME280;20816;50.950;11.108;2023-06-14T11:20:33;98520.34;;;24.91;47.93
34586;BME280;20816;50.950;11.108;2023-06-14T11:23:01;98517.97;;;24.76;47.78
34586;BME280;20816;50.950;11.108;2023-06-14T11:25:29;98517.09;;;25.30;47.70
34586;BME280;20816;50.950;11.108;2023-06-14T11:27:56;98503.41;;;25.86;46.50
34586;BME280;20816;50.950;11.108;2023-06-14T11:30:23;98507.31;;;26.24;45.88
34586;BME280;20816;50.950;11.108;2023-06-14T11:32:53;98510.06;;;26.13;46.33
34586;BME280;20816;50.950;11.108;2023-06-14T11:35:25;98504.28;;;25.55;46.14
34586;BME280;20816;50.950;11.108;2023-06-14T11:37:53;98502.50;;;25.76;46.15
34586;BME280;20816;50.950;11.108;2023-06-14T11:40:25;98507.41;;;26.22;44.81
34586;BME280;20816;50.950;11.108;2023-06-14T11:43:00;98494.56;;;26.26;43.89
34586;BME280;20816;50.950;11.108;2023-06-14T11:45:28;98492.09;;;25.92;44.55
34586;BME280;20816;50.950;11.108;2023-06-14T11:47:57;98494.16;;;25.15;47.08
34586;BME280;20816;50.950;11.108;2023-06-14T11:50:24;98493.47;;;25.66;47.05
34586;BME280;20816;50.950;11.108;2023-06-14T11:52:56;98488.56;;;25.39;47.32
34586;BME280;20816;50.950;11.108;2023-06-14T11:55:24;98492.31;;;24.61;48.59
34586;BME280;20816;50.950;11.108;2023-06-14T11:57:53;98489.63;;;24.27;48.41
34586;BME280;20816;50.950;11.108;2023-06-14T12:00:25;98490.66;;;23.45;49.54
34586;BME280;20816;50.950;11.108;2023-06-14T12:02:55;98499.97;;;23.28;50.72
34586;BME280;20816;50.950;11.108;2023-06-14T12:05:25;98498.59;;;23.82;49.46
34586;BME280;20816;50.950;11.108;2023-06-14T12:07:59;98502.75;;;23.86;49.65
34586;BME280;20816;50.950;11.108;2023-06-14T12:10:27;98503.81;;;24.52;48.37
34586;BME280;20816;50.950;11.108;2023-06-14T12:12:58;98494.97;;;24.72;47.17
34586;BME280;20816;50.950;11.108;2023-06-14T12:15:28;98491.59;;;25.13;47.96
34586;BME280;20816;50.950;11.108;2023-06-14T12:17:57;98492.16;;;25.60;46.45
34586;BME280;20816;50.950;11.108;2023-06-14T12:20:29;98481.16;;;25.84;46.11
34586;BME280;20816;50.950;11.108;2023-06-14T12:22:58;98484.81;;;25.30;46.16
34586;BME280;20816;50.950;11.108;2023-06-14T12:25:30;98485.25;;;25.88;46.36
34586;BME280;20816;50.950;11.108;2023-06-14T12:28:08;98484.50;;;26.38;45.62
34586;BME280;20816;50.950;11.108;2023-06-14T12:30:36;98482.34;;;26.52;45.79
34586;BME280;20816;50.950;11.108;2023-06-14T12:33:03;98488.78;;;25.15;46.78
34586;BME280;20816;50.950;11.108;2023-06-14T12:35:31;98495.59;;;24.31;46.81
34586;BME280;20816;50.950;11.108;2023-06-14T12:37:58;98488.66;;;24.62;47.52
34586;BME280;20816;50.950;11.108;2023-06-14T12:40:25;98476.66;;;25.74;45.36
34586;BME280;20816;50.950;11.108;2023-06-14T12:42:52;98490.59;;;25.79;45.66
34586;BME280;20816;50.950;11.108;2023-06-14T12:45:19;98480.50;;;24.96;46.24
34586;BME280;20816;50.950;11.108;2023-06-14T12:47:46;98490.75;;;25.13;46.34
34586;BME280;20816;50.950;11.108;2023-06-14T12:50:13;98484.69;;;24.88;46.99
34586;BME280;20816;50.950;11.108;2023-06-14T12:52:41;98505.75;;;24.27;48.66
34586;BME280;20816;50.950;11.108;2023-06-14T12:55:07;98482.28;;;24.07;49.05
34586;BME280;20816;50.950;11.108;2023-06-14T12:57:34;98488.13;;;24.01;49.23
34586;BME280;20816;50.950;11.108;2023-06-14T13:00:04;98499.53;;;24.49;47.53
34586;BME280;20816;50.950;11.108;2023-06-14T13:02:32;98490.81;;;24.79;47.99
34586;BME280;20816;50.950;11.108;2023-06-14T13:04:59;98482.47;;;25.05;47.53
34586;BME280;20816;50.950;11.108;2023-06-14T13:07:27;98488.19;;;25.64;48.03
34586;BME280;20816;50.950;11.108;2023-06-14T13:09:53;98474.63;;;24.47;48.82